sensor_id;sensor_type;location;lat;lon;timestamp;P1;durP1;ratioP1;P2;durP2;ratioP2
76852;SDS011;65825;52.232;10.566;2023-04-08T00:00:34;7.40;;;4.38;;
76852;SDS011;65825;52.232;10.566;2023-04-08T00:03:00;8.90;;;4.80;;
76852;SDS011;65825;52.232;10.566;2023-04-08T00:05:26;9.77;;;4.88;;
76852;SDS011;65825;52.232;10.566;2023-04-08T00:07:51;11.27;;;5.13;;
76852;SDS011;65825;52.232;10.566;2023-04-08T00:10:16;8.67;;;4.87;;
76852;SDS011;65825;52.232;10.566;2023-04-08T00:12:42;9.02;;;5.10;;
76852;SDS011;65825;52.232;10.566;2023-04-08T00:15:07;12.05;;;6.18;;
76852;SDS011;65825;52.232;10.566;2023-04-08T00:17:33;8.85;;;4.75;;
76852;SDS011;65825;52.232;10.566;2023-04-08T00:19:58;12.23;;;5.67;;
76852;SDS011;65825;52.232;10.566;2023-04-08T00:22:24;10.27;;;5.60;;
76852;SDS011;65825;52.232;10.566;2023-04-08T00:24:49;9.68;;;5.03;;
76852;SDS011;65825;52.232;10.566;2023-04-08T00:27:15;10.20;;;5.18;;
76852;SDS011;65825;52.232;10.566;2023-04-08T00:29:40;10.83;;;5.67;;
76852;SDS011;65825;52.232;10.566;2023-04-08T00:32:05;13.67;;;5.67;;
76852;SDS011;65825;52.232;10.566;2023-04-08T00:34:31;8.13;;;4.95;;
76852;SDS011;65825;52.232;10.566;2023-04-08T00:36:56;9.75;;;5.95;;
76852;SDS011;65825;52.232;10.566;2023-04-08T00:39:22;9.50;;;5.40;;
76852;SDS011;65825;52.232;10.566;2023-04-08T00:41:47;7.40;;;4.67;;
76852;SDS011;65825;52.232;10.566;2023-04-08T00:44:12;8.67;;;5.13;;
76852;SDS011;65825;52.232;10.566;2023-04-08T00:46:38;9.17;;;5.50;;
76852;SDS011;65825;52.232;10.566;2023-04-08T00:49:04;8.98;;;5.00;;
76852;SDS011;65825;52.232;10.566;2023-04-08T00:51:31;8.45;;;5.07;;
76852;SDS011;65825;52.232;10.566;2023-04-08T00:53:57;8.40;;;5.20;;
76852;SDS011;65825;52.232;10.566;2023-04-08T00:56:24;10.23;;;6.15;;
76852;SDS011;65825;52.232;10.566;2023-04-08T00:58:51;9.13;;;5.47;;
76852;SDS011;65825;52.232;10.566;2023-04-08T01:01:32;9.65;;;5.28;;
76852;SDS011;65825;52.232;10.566;2023-04-08T01:04:12;9.35;;;5.60;;
76852;SDS011;65825;52.232;10.566;2023-04-08T01:09:21;10.07;;;5.68;;
76852;SDS011;65825;52.232;10.566;2023-04-08T01:11:49;10.98;;;5.30;;
76852;SDS011;65825;52.232;10.566;2023-04-08T01:14:20;11.52;;;6.03;;
76852;SDS011;65825;52.232;10.566;2023-04-08T01:16:49;9.93;;;5.80;;
76852;SDS011;65825;52.232;10.566;2023-04-08T01:19:16;9.68;;;6.00;;
76852;SDS011;65825;52.232;10.566;2023-04-08T01:21:54;10.93;;;5.50;;
76852;SDS011;65825;52.232;10.566;2023-04-08T01:24:29;11.27;;;5.78;;
76852;SDS011;65825;52.232;10.566;2023-04-08T01:26:58;10.68;;;5.68;;
76852;SDS011;65825;52.232;10.566;2023-04-08T01:29:25;8.90;;;5.10;;
76852;SDS011;65825;52.232;10.566;2023-04-08T01:31:52;8.55;;;5.00;;
76852;SDS011;65825;52.232;10.566;2023-04-08T01:34:19;9.73;;;5.38;;
76852;SDS011;65825;52.232;10.566;2023-04-08T01:36:45;10.77;;;5.50;;
76852;SDS011;65825;52.232;10.566;2023-04-08T01:39:13;9.20;;;5.53;;
76852;SDS011;65825;52.232;10.566;2023-04-08T01:41:41;10.75;;;5.78;;
76852;SDS011;65825;52.232;10.566;2023-04-08T01:44:07;8.95;;;5.05;;
76852;SDS011;65825;52.232;10.566;2023-04-08T01:46:34;8.85;;;5.55;;
76852;SDS011;65825;52.232;10.566;2023-04-08T01:49:00;10.30;;;5.65;;
76852;SDS011;65825;52.232;10.566;2023-04-08T01:51:26;9.80;;;5.25;;
76852;SDS011;65825;52.232;10.566;2023-04-08T01:53:53;10.20;;;5.70;;
76852;SDS011;65825;52.232;10.566;2023-04-08T01:56:18;10.17;;;5.37;;
76852;SDS011;65825;52.232;10.566;2023-04-08T01:58:47;10.20;;;5.57;;
76852;SDS011;65825;52.232;10.566;2023-04-08T02:01:16;10.23;;;5.32;;
76852;SDS011;65825;52.232;10.566;2023-04-08T02:03:45;9.20;;;5.20;;
76852;SDS011;65825;52.232;10.566;2023-04-08T02:06:11;9.85;;;5.43;;
76852;SDS011;65825;52.232;10.566;2023-04-08T02:08:37;9.75;;;5.47;;
76852;SDS011;65825;52.232;10.566;2023-04-08T02:11:02;12.05;;;5.32;;
76852;SDS011;65825;52.232;10.566;2023-04-08T02:13:28;11.45;;;5.78;;
76852;SDS011;65825;52.232;10.566;2023-04-08T02:16:57;11.20;;;5.68;;
76852;SDS011;65825;52.232;10.566;2023-04-08T02:18:57;8.88;;;5.07;;
76852;SDS011;65825;52.232;10.566;2023-04-08T02:21:30;10.10;;;5.55;;
76852;SDS011;65825;52.232;10.566;2023-04-08T02:24:01;9.27;;;5.65;;
76852;SDS011;65825;52.232;10.566;2023-04-08T02:26:30;9.32;;;5.22;;
76852;SDS011;65825;52.232;10.566;2023-04-08T02:28:58;10.50;;;5.65;;
76852;SDS011;65825;52.232;10.566;2023-04-08T02:31:24;9.50;;;5.88;;
76852;SDS011;65825;52.232;10.566;2023-04-08T02:33:50;11.07;;;5.50;;
76852;SDS011;65825;52.232;10.566;2023-04-08T02:36:16;9.70;;;5.55;;
76852;SDS011;65825;52.232;10.566;2023-04-08T02:38:46;9.90;;;5.45;;
76852;SDS011;65825;52.232;10.566;2023-04-08T02:41:12;11.23;;;5.82;;
76852;SDS011;65825;52.232;10.566;2023-04-08T02:43:37;11.00;;;5.47;;
76852;SDS011;65825;52.232;10.566;2023-04-08T02:46:02;9.00;;;5.03;;
76852;SDS011;65825;52.232;10.566;2023-04-08T02:48:28;10.63;;;5.60;;
76852;SDS011;65825;52.232;10.566;2023-04-08T02:50:54;11.65;;;5.93;;
76852;SDS011;65825;52.232;10.566;2023-04-08T02:53:21;12.17;;;6.27;;
76852;SDS011;65825;52.232;10.566;2023-04-08T02:55:47;11.20;;;5.80;;
76852;SDS011;65825;52.232;10.566;2023-04-08T02:58:12;10.23;;;5.33;;
76852;SDS011;65825;52.232;10.566;2023-04-08T03:00:37;11.50;;;5.83;;
76852;SDS011;65825;52.232;10.566;2023-04-08T03:03:03;10.38;;;5.45;;
76852;SDS011;65825;52.232;10.566;2023-04-08T03:05:30;13.15;;;6.22;;
76852;SDS011;65825;52.232;10.566;2023-04-08T03:07:56;10.65;;;5.60;;
76852;SDS011;65825;52.232;10.566;2023-04-08T03:10:21;11.25;;;6.10;;
76852;SDS011;65825;52.232;10.566;2023-04-08T03:12:46;10.83;;;5.73;;
76852;SDS011;65825;52.232;10.566;2023-04-08T03:15:12;12.60;;;6.90;;
76852;SDS011;65825;52.232;10.566;2023-04-08T03:17:37;12.02;;;6.22;;
76852;SDS011;65825;52.232;10.566;2023-04-08T03:20:02;10.83;;;5.90;;
76852;SDS011;65825;52.232;10.566;2023-04-08T03:22:28;12.90;;;6.50;;
76852;SDS011;65825;52.232;10.566;2023-04-08T03:24:54;11.43;;;5.93;;
76852;SDS011;65825;52.232;10.566;2023-04-08T03:27:19;13.00;;;6.57;;
76852;SDS011;65825;52.232;10.566;2023-04-08T03:29:44;14.68;;;6.90;;
76852;SDS011;65825;52.232;10.566;2023-04-08T03:32:10;13.93;;;6.15;;
76852;SDS011;65825;52.232;10.566;2023-04-08T03:34:36;15.10;;;7.05;;
76852;SDS011;65825;52.232;10.566;2023-04-08T03:37:01;15.13;;;7.10;;
76852;SDS011;65825;52.232;10.566;2023-04-08T03:39:27;13.83;;;6.27;;
76852;SDS011;65825;52.232;10.566;2023-04-08T03:41:52;15.57;;;7.68;;
76852;SDS011;65825;52.232;10.566;2023-04-08T03:44:17;15.05;;;7.78;;
76852;SDS011;65825;52.232;10.566;2023-04-08T03:46:43;16.75;;;7.75;;
76852;SDS011;65825;52.232;10.566;2023-04-08T03:49:08;13.27;;;7.20;;
76852;SDS011;65825;52.232;10.566;2023-04-08T03:51:33;14.07;;;7.33;;
76852;SDS011;65825;52.232;10.566;2023-04-08T03:53:58;16.53;;;8.33;;
76852;SDS011;65825;52.232;10.566;2023-04-08T03:56:24;14.73;;;7.07;;
76852;SDS011;65825;52.232;10.566;2023-04-08T03:58:49;13.57;;;7.28;;
76852;SDS011;65825;52.232;10.566;2023-04-08T04:01:15;14.87;;;7.57;;
76852;SDS011;65825;52.232;10.566;2023-04-08T04:03:40;14.35;;;7.85;;
76852;SDS011;65825;52.232;10.566;2023-04-08T04:06:05;16.08;;;8.07;;
76852;SDS011;65825;52.232;10.566;2023-04-08T04:08:31;16.77;;;7.60;;
76852;SDS011;65825;52.232;10.566;2023-04-08T04:10:57;18.30;;;8.43;;
76852;SDS011;65825;52.232;10.566;2023-04-08T04:13:23;15.98;;;8.32;;
76852;SDS011;65825;52.232;10.566;2023-04-08T04:15:48;18.48;;;8.77;;
76852;SDS011;65825;52.232;10.566;2023-04-08T04:18:13;17.10;;;8.77;;
76852;SDS011;65825;52.232;10.566;2023-04-08T04:20:40;15.03;;;7.90;;
76852;SDS011;65825;52.232;10.566;2023-04-08T04:23:06;15.90;;;8.27;;
76852;SDS011;65825;52.232;10.566;2023-04-08T04:25:31;15.63;;;8.38;;
76852;SDS011;65825;52.232;10.566;2023-04-08T04:27:57;19.87;;;8.77;;
76852;SDS011;65825;52.232;10.566;2023-04-08T04:30:22;16.17;;;8.10;;
76852;SDS011;65825;52.232;10.566;2023-04-08T04:32:47;17.23;;;8.75;;
76852;SDS011;65825;52.232;10.566;2023-04-08T04:35:13;17.17;;;8.47;;
76852;SDS011;65825;52.232;10.566;2023-04-08T04:37:38;16.97;;;8.20;;
76852;SDS011;65825;52.232;10.566;2023-04-08T04:40:04;17.60;;;9.30;;
76852;SDS011;65825;52.232;10.566;2023-04-08T04:42:30;18.48;;;9.20;;
76852;SDS011;65825;52.232;10.566;2023-04-08T04:44:55;18.02;;;8.73;;
76852;SDS011;65825;52.232;10.566;2023-04-08T04:47:21;14.77;;;7.90;;
76852;SDS011;65825;52.232;10.566;2023-04-08T04:49:46;15.13;;;8.47;;
76852;SDS011;65825;52.232;10.566;2023-04-08T04:52:11;19.20;;;9.10;;
76852;SDS011;65825;52.232;10.566;2023-04-08T04:54:36;17.17;;;9.30;;
76852;SDS011;65825;52.232;10.566;2023-04-08T04:57:02;21.23;;;9.10;;
76852;SDS011;65825;52.232;10.566;2023-04-08T04:59:27;16.87;;;8.80;;
76852;SDS011;65825;52.232;10.566;2023-04-08T05:01:52;22.63;;;9.53;;
76852;SDS011;65825;52.232;10.566;2023-04-08T05:04:17;17.33;;;8.87;;
76852;SDS011;65825;52.232;10.566;2023-04-08T05:06:42;18.67;;;9.30;;
76852;SDS011;65825;52.232;10.566;2023-04-08T05:09:08;19.23;;;9.17;;
76852;SDS011;65825;52.232;10.566;2023-04-08T05:11:33;19.07;;;8.83;;
76852;SDS011;65825;52.232;10.566;2023-04-08T05:13:58;17.48;;;8.75;;
76852;SDS011;65825;52.232;10.566;2023-04-08T05:16:23;18.43;;;9.43;;
76852;SDS011;65825;52.232;10.566;2023-04-08T05:18:49;20.13;;;8.68;;
76852;SDS011;65825;52.232;10.566;2023-04-08T05:21:14;22.13;;;10.52;;
76852;SDS011;65825;52.232;10.566;2023-04-08T05:23:40;21.27;;;10.13;;
76852;SDS011;65825;52.232;10.566;2023-04-08T05:26:06;24.70;;;10.70;;
76852;SDS011;65825;52.232;10.566;2023-04-08T05:28:32;22.67;;;10.70;;
76852;SDS011;65825;52.232;10.566;2023-04-08T05:30:57;25.70;;;10.90;;
76852;SDS011;65825;52.232;10.566;2023-04-08T05:33:23;28.77;;;12.70;;
76852;SDS011;65825;52.232;10.566;2023-04-08T05:35:50;22.98;;;10.90;;
76852;SDS011;65825;52.232;10.566;2023-04-08T05:38:15;24.90;;;11.57;;
76852;SDS011;65825;52.232;10.566;2023-04-08T05:40:40;28.53;;;12.70;;
76852;SDS011;65825;52.232;10.566;2023-04-08T05:43:06;24.87;;;11.23;;
76852;SDS011;65825;52.232;10.566;2023-04-08T05:45:31;24.77;;;11.37;;
76852;SDS011;65825;52.232;10.566;2023-04-08T05:47:56;26.08;;;11.85;;
76852;SDS011;65825;52.232;10.566;2023-04-08T05:50:24;25.80;;;9.75;;
76852;SDS011;65825;52.232;10.566;2023-04-08T05:52:49;26.83;;;11.03;;
76852;SDS011;65825;52.232;10.566;2023-04-08T05:55:14;25.90;;;10.50;;
76852;SDS011;65825;52.232;10.566;2023-04-08T05:57:40;26.80;;;11.10;;
76852;SDS011;65825;52.232;10.566;2023-04-08T06:00:06;27.50;;;11.18;;
76852;SDS011;65825;52.232;10.566;2023-04-08T06:02:36;21.25;;;10.35;;
76852;SDS011;65825;52.232;10.566;2023-04-08T06:05:02;24.48;;;11.02;;
76852;SDS011;65825;52.232;10.566;2023-04-08T06:07:28;23.90;;;10.80;;
76852;SDS011;65825;52.232;10.566;2023-04-08T06:09:54;24.58;;;11.48;;
76852;SDS011;65825;52.232;10.566;2023-04-08T06:12:19;23.30;;;10.77;;
76852;SDS011;65825;52.232;10.566;2023-04-08T06:14:45;28.45;;;11.80;;
76852;SDS011;65825;52.232;10.566;2023-04-08T06:17:10;26.13;;;12.40;;
76852;SDS011;65825;52.232;10.566;2023-04-08T06:19:35;27.03;;;11.63;;
76852;SDS011;65825;52.232;10.566;2023-04-08T06:22:01;27.53;;;11.57;;
76852;SDS011;65825;52.232;10.566;2023-04-08T06:24:28;25.40;;;11.43;;
76852;SDS011;65825;52.232;10.566;2023-04-08T06:26:54;25.10;;;11.02;;
76852;SDS011;65825;52.232;10.566;2023-04-08T06:29:20;20.70;;;10.13;;
76852;SDS011;65825;52.232;10.566;2023-04-08T06:31:46;21.95;;;9.95;;
76852;SDS011;65825;52.232;10.566;2023-04-08T06:34:12;28.17;;;10.60;;
76852;SDS011;65825;52.232;10.566;2023-04-08T06:36:37;23.33;;;10.02;;
76852;SDS011;65825;52.232;10.566;2023-04-08T06:39:03;22.20;;;9.50;;
76852;SDS011;65825;52.232;10.566;2023-04-08T06:41:28;23.63;;;10.43;;
76852;SDS011;65825;52.232;10.566;2023-04-08T06:43:54;26.17;;;10.07;;
76852;SDS011;65825;52.232;10.566;2023-04-08T06:46:19;24.65;;;10.80;;
76852;SDS011;65825;52.232;10.566;2023-04-08T06:48:45;24.42;;;10.80;;
76852;SDS011;65825;52.232;10.566;2023-04-08T06:51:10;24.85;;;10.88;;
76852;SDS011;65825;52.232;10.566;2023-04-08T06:53:36;27.27;;;11.05;;
76852;SDS011;65825;52.232;10.566;2023-04-08T06:56:01;25.70;;;11.57;;
76852;SDS011;65825;52.232;10.566;2023-04-08T06:58:26;29.63;;;12.55;;
76852;SDS011;65825;52.232;10.566;2023-04-08T07:00:55;26.53;;;11.43;;
76852;SDS011;65825;52.232;10.566;2023-04-08T07:03:20;26.42;;;11.25;;
76852;SDS011;65825;52.232;10.566;2023-04-08T07:05:46;27.35;;;11.07;;
76852;SDS011;65825;52.232;10.566;2023-04-08T07:08:11;23.42;;;11.48;;
76852;SDS011;65825;52.232;10.566;2023-04-08T07:10:37;23.52;;;11.27;;
76852;SDS011;65825;52.232;10.566;2023-04-08T07:13:02;24.70;;;9.27;;
76852;SDS011;65825;52.232;10.566;2023-04-08T07:15:28;18.80;;;7.97;;
76852;SDS011;65825;52.232;10.566;2023-04-08T07:17:54;18.83;;;8.25;;
76852;SDS011;65825;52.232;10.566;2023-04-08T07:22:46;17.65;;;7.70;;
76852;SDS011;65825;52.232;10.566;2023-04-08T07:25:12;14.40;;;7.32;;
76852;SDS011;65825;52.232;10.566;2023-04-08T07:27:37;15.37;;;7.13;;
76852;SDS011;65825;52.232;10.566;2023-04-08T07:30:02;14.73;;;7.47;;
76852;SDS011;65825;52.232;10.566;2023-04-08T07:32:28;17.85;;;8.52;;
76852;SDS011;65825;52.232;10.566;2023-04-08T07:34:53;18.13;;;8.37;;
76852;SDS011;65825;52.232;10.566;2023-04-08T07:37:19;17.30;;;8.13;;
76852;SDS011;65825;52.232;10.566;2023-04-08T07:39:44;19.80;;;7.97;;
76852;SDS011;65825;52.232;10.566;2023-04-08T07:42:09;17.02;;;7.43;;
76852;SDS011;65825;52.232;10.566;2023-04-08T07:44:34;18.83;;;8.45;;
76852;SDS011;65825;52.232;10.566;2023-04-08T07:47:00;16.90;;;7.75;;
76852;SDS011;65825;52.232;10.566;2023-04-08T07:49:25;16.98;;;8.13;;
76852;SDS011;65825;52.232;10.566;2023-04-08T07:51:50;18.77;;;8.18;;
76852;SDS011;65825;52.232;10.566;2023-04-08T07:54:17;16.70;;;8.32;;
76852;SDS011;65825;52.232;10.566;2023-04-08T07:56:42;18.27;;;8.00;;
76852;SDS011;65825;52.232;10.566;2023-04-08T07:59:09;17.33;;;7.65;;
76852;SDS011;65825;52.232;10.566;2023-04-08T08:01:35;20.70;;;8.30;;
76852;SDS011;65825;52.232;10.566;2023-04-08T08:04:00;18.08;;;8.25;;
76852;SDS011;65825;52.232;10.566;2023-04-08T08:06:26;18.17;;;8.02;;
76852;SDS011;65825;52.232;10.566;2023-04-08T08:08:51;17.03;;;8.07;;
76852;SDS011;65825;52.232;10.566;2023-04-08T08:11:17;18.13;;;8.20;;
76852;SDS011;65825;52.232;10.566;2023-04-08T08:13:43;18.73;;;8.25;;
76852;SDS011;65825;52.232;10.566;2023-04-08T08:16:08;20.17;;;8.70;;
76852;SDS011;65825;52.232;10.566;2023-04-08T08:18:35;15.52;;;7.97;;
76852;SDS011;65825;52.232;10.566;2023-04-08T08:21:01;17.48;;;7.68;;
76852;SDS011;65825;52.232;10.566;2023-04-08T08:23:27;17.88;;;8.48;;
76852;SDS011;65825;52.232;10.566;2023-04-08T08:26:02;20.93;;;9.00;;
76852;SDS011;65825;52.232;10.566;2023-04-08T08:28:30;17.95;;;8.82;;
76852;SDS011;65825;52.232;10.566;2023-04-08T08:30:55;15.80;;;7.65;;
76852;SDS011;65825;52.232;10.566;2023-04-08T08:33:21;16.37;;;7.87;;
76852;SDS011;65825;52.232;10.566;2023-04-08T08:35:46;22.67;;;8.73;;
76852;SDS011;65825;52.232;10.566;2023-04-08T08:38:11;17.67;;;8.90;;
76852;SDS011;65825;52.232;10.566;2023-04-08T08:40:37;18.55;;;8.18;;
76852;SDS011;65825;52.232;10.566;2023-04-08T08:43:03;16.60;;;8.27;;
76852;SDS011;65825;52.232;10.566;2023-04-08T08:45:28;17.47;;;8.37;;
76852;SDS011;65825;52.232;10.566;2023-04-08T08:47:54;21.83;;;8.95;;
76852;SDS011;65825;52.232;10.566;2023-04-08T08:50:20;19.55;;;8.95;;
76852;SDS011;65825;52.232;10.566;2023-04-08T08:52:49;21.17;;;9.02;;
76852;SDS011;65825;52.232;10.566;2023-04-08T08:55:18;20.13;;;8.13;;
76852;SDS011;65825;52.232;10.566;2023-04-08T08:57:44;19.92;;;8.93;;
76852;SDS011;65825;52.232;10.566;2023-04-08T09:00:10;18.60;;;8.65;;
76852;SDS011;65825;52.232;10.566;2023-04-08T09:02:39;20.27;;;9.40;;
76852;SDS011;65825;52.232;10.566;2023-04-08T09:05:05;19.50;;;8.75;;
76852;SDS011;65825;52.232;10.566;2023-04-08T09:07:31;21.52;;;9.60;;
76852;SDS011;65825;52.232;10.566;2023-04-08T09:10:00;20.75;;;9.35;;
76852;SDS011;65825;52.232;10.566;2023-04-08T09:12:25;16.98;;;8.73;;
76852;SDS011;65825;52.232;10.566;2023-04-08T09:15:02;20.52;;;9.57;;
76852;SDS011;65825;52.232;10.566;2023-04-08T09:17:34;19.80;;;9.40;;
76852;SDS011;65825;52.232;10.566;2023-04-08T09:20:12;20.17;;;9.13;;
76852;SDS011;65825;52.232;10.566;2023-04-08T09:25:23;21.85;;;9.02;;
76852;SDS011;65825;52.232;10.566;2023-04-08T09:27:49;22.35;;;9.35;;
76852;SDS011;65825;52.232;10.566;2023-04-08T09:30:16;19.60;;;8.90;;
76852;SDS011;65825;52.232;10.566;2023-04-08T09:32:48;23.38;;;9.20;;
76852;SDS011;65825;52.232;10.566;2023-04-08T09:35:16;17.67;;;8.75;;
76852;SDS011;65825;52.232;10.566;2023-04-08T09:37:44;24.55;;;9.85;;
76852;SDS011;65825;52.232;10.566;2023-04-08T09:40:10;25.10;;;9.68;;
76852;SDS011;65825;52.232;10.566;2023-04-08T09:42:39;21.42;;;9.40;;
76852;SDS011;65825;52.232;10.566;2023-04-08T09:45:08;23.80;;;9.52;;
76852;SDS011;65825;52.232;10.566;2023-04-08T09:47:37;25.10;;;10.25;;
76852;SDS011;65825;52.232;10.566;2023-04-08T09:50:21;20.55;;;8.77;;
76852;SDS011;65825;52.232;10.566;2023-04-08T09:52:52;22.30;;;9.77;;
76852;SDS011;65825;52.232;10.566;2023-04-08T09:55:24;21.52;;;9.75;;
76852;SDS011;65825;52.232;10.566;2023-04-08T09:57:55;22.60;;;10.43;;
76852;SDS011;65825;52.232;10.566;2023-04-08T10:01:07;22.38;;;9.75;;
76852;SDS011;65825;52.232;10.566;2023-04-08T10:03:32;21.08;;;8.98;;
76852;SDS011;65825;52.232;10.566;2023-04-08T10:06:01;23.08;;;9.93;;
76852;SDS011;65825;52.232;10.566;2023-04-08T10:11:42;24.70;;;10.52;;
76852;SDS011;65825;52.232;10.566;2023-04-08T10:14:08;19.45;;;9.52;;
76852;SDS011;65825;52.232;10.566;2023-04-08T10:16:33;21.35;;;9.80;;
76852;SDS011;65825;52.232;10.566;2023-04-08T10:18:59;21.95;;;9.77;;
76852;SDS011;65825;52.232;10.566;2023-04-08T10:21:37;23.97;;;9.97;;
76852;SDS011;65825;52.232;10.566;2023-04-08T10:24:06;20.05;;;9.02;;
76852;SDS011;65825;52.232;10.566;2023-04-08T10:26:33;24.02;;;9.75;;
76852;SDS011;65825;52.232;10.566;2023-04-08T10:31:45;21.38;;;9.40;;
76852;SDS011;65825;52.232;10.566;2023-04-08T10:37:34;22.52;;;9.57;;
76852;SDS011;65825;52.232;10.566;2023-04-08T10:39:59;22.02;;;9.50;;
76852;SDS011;65825;52.232;10.566;2023-04-08T10:42:26;19.58;;;9.57;;
76852;SDS011;65825;52.232;10.566;2023-04-08T10:44:52;20.52;;;9.30;;
76852;SDS011;65825;52.232;10.566;2023-04-08T10:47:24;16.17;;;8.43;;
76852;SDS011;65825;52.232;10.566;2023-04-08T10:49:50;17.90;;;7.80;;
76852;SDS011;65825;52.232;10.566;2023-04-08T10:52:15;17.52;;;8.25;;
76852;SDS011;65825;52.232;10.566;2023-04-08T10:54:45;19.97;;;8.47;;
76852;SDS011;65825;52.232;10.566;2023-04-08T10:57:12;15.68;;;7.78;;
76852;SDS011;65825;52.232;10.566;2023-04-08T10:59:37;17.05;;;8.00;;
76852;SDS011;65825;52.232;10.566;2023-04-08T11:02:03;17.48;;;8.13;;
76852;SDS011;65825;52.232;10.566;2023-04-08T11:04:29;17.10;;;6.88;;
76852;SDS011;65825;52.232;10.566;2023-04-08T11:06:54;14.65;;;6.85;;
76852;SDS011;65825;52.232;10.566;2023-04-08T11:09:20;15.70;;;7.15;;
76852;SDS011;65825;52.232;10.566;2023-04-08T11:11:45;17.00;;;7.90;;
76852;SDS011;65825;52.232;10.566;2023-04-08T11:14:11;15.45;;;6.82;;
76852;SDS011;65825;52.232;10.566;2023-04-08T11:16:37;15.95;;;7.05;;
76852;SDS011;65825;52.232;10.566;2023-04-08T11:19:03;14.60;;;7.07;;
76852;SDS011;65825;52.232;10.566;2023-04-08T11:21:30;16.90;;;7.15;;
76852;SDS011;65825;52.232;10.566;2023-04-08T11:23:56;16.25;;;7.15;;
76852;SDS011;65825;52.232;10.566;2023-04-08T11:26:22;13.70;;;6.40;;
76852;SDS011;65825;52.232;10.566;2023-04-08T11:28:49;15.63;;;7.03;;
76852;SDS011;65825;52.232;10.566;2023-04-08T11:31:15;14.57;;;6.93;;
76852;SDS011;65825;52.232;10.566;2023-04-08T11:36:11;15.18;;;6.93;;
76852;SDS011;65825;52.232;10.566;2023-04-08T11:38:39;15.88;;;7.68;;
76852;SDS011;65825;52.232;10.566;2023-04-08T11:41:08;14.48;;;6.90;;
76852;SDS011;65825;52.232;10.566;2023-04-08T11:43:33;15.60;;;7.63;;
76852;SDS011;65825;52.232;10.566;2023-04-08T11:46:08;17.90;;;7.30;;
76852;SDS011;65825;52.232;10.566;2023-04-08T11:48:34;15.63;;;6.90;;
76852;SDS011;65825;52.232;10.566;2023-04-08T11:51:04;15.15;;;6.43;;
76852;SDS011;65825;52.232;10.566;2023-04-08T11:53:33;16.70;;;6.72;;
76852;SDS011;65825;52.232;10.566;2023-04-08T11:56:14;14.70;;;7.10;;
76852;SDS011;65825;52.232;10.566;2023-04-08T11:58:40;17.27;;;7.50;;
76852;SDS011;65825;52.232;10.566;2023-04-08T12:01:05;19.50;;;7.67;;
76852;SDS011;65825;52.232;10.566;2023-04-08T12:03:31;16.58;;;7.88;;
76852;SDS011;65825;52.232;10.566;2023-04-08T12:05:56;15.93;;;7.55;;
76852;SDS011;65825;52.232;10.566;2023-04-08T12:08:21;20.00;;;7.30;;
76852;SDS011;65825;52.232;10.566;2023-04-08T12:10:47;15.45;;;7.25;;
76852;SDS011;65825;52.232;10.566;2023-04-08T12:13:12;16.43;;;8.00;;
76852;SDS011;65825;52.232;10.566;2023-04-08T12:15:37;19.33;;;8.60;;
76852;SDS011;65825;52.232;10.566;2023-04-08T12:18:06;20.38;;;8.02;;
76852;SDS011;65825;52.232;10.566;2023-04-08T12:20:31;15.57;;;8.20;;
76852;SDS011;65825;52.232;10.566;2023-04-08T12:22:56;18.13;;;8.10;;
76852;SDS011;65825;52.232;10.566;2023-04-08T12:25:22;19.33;;;8.80;;
76852;SDS011;65825;52.232;10.566;2023-04-08T12:27:47;18.63;;;8.13;;
76852;SDS011;65825;52.232;10.566;2023-04-08T12:30:12;20.27;;;8.85;;
76852;SDS011;65825;52.232;10.566;2023-04-08T12:32:38;18.30;;;8.82;;
76852;SDS011;65825;52.232;10.566;2023-04-08T12:35:04;17.60;;;8.50;;
76852;SDS011;65825;52.232;10.566;2023-04-08T12:37:30;21.92;;;8.80;;
76852;SDS011;65825;52.232;10.566;2023-04-08T12:39:57;17.77;;;8.15;;
76852;SDS011;65825;52.232;10.566;2023-04-08T12:42:22;21.30;;;8.97;;
76852;SDS011;65825;52.232;10.566;2023-04-08T12:44:47;17.43;;;8.57;;
76852;SDS011;65825;52.232;10.566;2023-04-08T12:47:13;19.98;;;9.32;;
76852;SDS011;65825;52.232;10.566;2023-04-08T12:49:38;19.15;;;9.05;;
76852;SDS011;65825;52.232;10.566;2023-04-08T12:52:03;19.37;;;8.73;;
76852;SDS011;65825;52.232;10.566;2023-04-08T12:54:29;18.30;;;8.05;;
76852;SDS011;65825;52.232;10.566;2023-04-08T12:56:55;19.73;;;8.70;;
76852;SDS011;65825;52.232;10.566;2023-04-08T12:59:21;16.95;;;8.13;;
76852;SDS011;65825;52.232;10.566;2023-04-08T13:01:46;18.73;;;8.77;;
76852;SDS011;65825;52.232;10.566;2023-04-08T13:04:12;19.65;;;9.80;;
76852;SDS011;65825;52.232;10.566;2023-04-08T13:06:37;19.53;;;8.97;;
76852;SDS011;65825;52.232;10.566;2023-04-08T13:09:02;20.80;;;8.77;;
76852;SDS011;65825;52.232;10.566;2023-04-08T13:11:27;19.40;;;9.02;;
76852;SDS011;65825;52.232;10.566;2023-04-08T13:13:53;19.38;;;8.90;;
76852;SDS011;65825;52.232;10.566;2023-04-08T13:16:18;21.07;;;8.67;;
76852;SDS011;65825;52.232;10.566;2023-04-08T13:18:44;18.33;;;9.27;;
76852;SDS011;65825;52.232;10.566;2023-04-08T13:21:09;21.27;;;9.80;;
76852;SDS011;65825;52.232;10.566;2023-04-08T13:23:35;21.52;;;9.57;;
76852;SDS011;65825;52.232;10.566;2023-04-08T13:26:00;20.98;;;9.15;;
76852;SDS011;65825;52.232;10.566;2023-04-08T13:28:26;22.42;;;9.52;;
76852;SDS011;65825;52.232;10.566;2023-04-08T13:30:51;22.20;;;9.20;;
76852;SDS011;65825;52.232;10.566;2023-04-08T13:33:17;20.27;;;9.13;;
76852;SDS011;65825;52.232;10.566;2023-04-08T13:35:43;21.83;;;9.07;;
76852;SDS011;65825;52.232;10.566;2023-04-08T13:38:08;19.80;;;8.63;;
76852;SDS011;65825;52.232;10.566;2023-04-08T13:40:33;20.58;;;9.57;;
76852;SDS011;65825;52.232;10.566;2023-04-08T13:42:59;22.65;;;9.20;;
76852;SDS011;65825;52.232;10.566;2023-04-08T13:45:25;21.98;;;9.82;;
76852;SDS011;65825;52.232;10.566;2023-04-08T13:47:50;20.30;;;9.32;;
76852;SDS011;65825;52.232;10.566;2023-04-08T13:50:16;21.30;;;8.40;;
76852;SDS011;65825;52.232;10.566;2023-04-08T13:52:41;23.67;;;9.63;;
76852;SDS011;65825;52.232;10.566;2023-04-08T13:55:06;22.60;;;9.97;;
76852;SDS011;65825;52.232;10.566;2023-04-08T13:57:32;20.98;;;9.38;;
76852;SDS011;65825;52.232;10.566;2023-04-08T13:59:57;20.27;;;9.23;;
76852;SDS011;65825;52.232;10.566;2023-04-08T14:02:23;21.13;;;9.07;;
76852;SDS011;65825;52.232;10.566;2023-04-08T14:04:48;18.52;;;8.90;;
76852;SDS011;65825;52.232;10.566;2023-04-08T14:07:13;19.80;;;8.80;;
76852;SDS011;65825;52.232;10.566;2023-04-08T14:09:39;21.45;;;9.68;;
76852;SDS011;65825;52.232;10.566;2023-04-08T14:12:04;19.83;;;8.40;;
76852;SDS011;65825;52.232;10.566;2023-04-08T14:14:30;17.50;;;9.30;;
76852;SDS011;65825;52.232;10.566;2023-04-08T14:16:55;20.27;;;9.15;;
76852;SDS011;65825;52.232;10.566;2023-04-08T14:19:21;23.87;;;9.77;;
76852;SDS011;65825;52.232;10.566;2023-04-08T14:21:46;21.73;;;9.25;;
76852;SDS011;65825;52.232;10.566;2023-04-08T14:24:11;19.17;;;9.07;;
76852;SDS011;65825;52.232;10.566;2023-04-08T14:26:36;20.23;;;8.95;;
76852;SDS011;65825;52.232;10.566;2023-04-08T14:29:03;19.55;;;8.50;;
76852;SDS011;65825;52.232;10.566;2023-04-08T14:31:29;18.80;;;8.30;;
76852;SDS011;65825;52.232;10.566;2023-04-08T14:33:58;18.77;;;9.35;;
76852;SDS011;65825;52.232;10.566;2023-04-08T14:36:24;19.63;;;8.57;;